Clear Creek, Iowa
Current Conditions -  °F | °C
As of 3:55 AM on Friday 19 Dec 2014 (Local Time) from KAWG Reporting Station
Overcast Overcast  
Wind Chill: 27°   Ceiling: 4800
Heat Index: 27°   Visibility: 10mi
Dew Point: 25°   Wind: 3mph
Humidity: 93%   Direction: 50°NE
Pressure: 30.28"   Gusts: NA
Location:  41.3169°N, 91.9953°W
Report Text: KAWG 190955Z AUTO 05003KT 10SM BKN048 OVC060 M03/M04 A3028 RMK AO2
Loading
Personal Weather Stations






























Interactive Weather Map New forecast layout! Learn more

10-Day Weather Forecast

Advertisements
Track Severe Weather on mobile